createdAt,value
2018-10-11T00:01:54.672Z,7.39
2018-10-11T00:04:22.634Z,7.35
2018-10-11T00:06:50.732Z,7.22
2018-10-11T00:09:18.670Z,7.11
2018-10-11T00:11:46.593Z,7.01
2018-10-11T00:14:14.502Z,7.01
2018-10-11T00:16:42.396Z,6.97
2018-10-11T00:19:10.302Z,6.95
2018-10-11T00:21:38.836Z,7.01
2018-10-11T00:24:06.944Z,7.02
2018-10-11T00:26:34.894Z,6.99
2018-10-11T00:29:02.903Z,6.90
2018-10-11T00:31:30.975Z,6.85
2018-10-11T00:33:59.067Z,6.86
2018-10-11T00:36:27.214Z,6.85
2018-10-11T00:38:55.343Z,6.86
2018-10-11T00:41:23.470Z,6.90
2018-10-11T00:43:51.542Z,6.91
2018-10-11T00:46:19.627Z,7.03
2018-10-11T00:48:47.761Z,7.00
2018-10-11T00:51:15.878Z,7.02
2018-10-11T00:53:44.068Z,6.93
2018-10-11T00:56:12.202Z,6.86
2018-10-11T00:58:40.316Z,6.80
2018-10-11T01:01:08.439Z,7.00
2018-10-11T01:03:36.605Z,6.89
2018-10-11T01:06:04.797Z,6.87
2018-10-11T01:08:32.896Z,6.77
2018-10-11T01:11:01.054Z,6.71
2018-10-11T01:13:29.200Z,6.62
2018-10-11T01:15:57.517Z,6.71
2018-10-11T01:18:25.806Z,6.82
2018-10-11T01:20:54.182Z,6.79
2018-10-11T01:23:22.320Z,6.87
2018-10-11T01:25:50.444Z,6.79
2018-10-11T01:28:18.617Z,6.78
2018-10-11T01:30:52.317Z,6.84
2018-10-11T01:33:20.428Z,6.80
2018-10-11T01:35:48.643Z,6.87
2018-10-11T01:38:16.745Z,6.62
2018-10-11T01:40:44.954Z,6.49
2018-10-11T01:43:13.127Z,6.41
2018-10-11T01:45:41.504Z,6.37
2018-10-11T01:48:09.675Z,6.33
2018-10-11T01:50:37.858Z,6.24
2018-10-11T01:53:06.247Z,6.20
2018-10-11T01:55:34.505Z,6.12
2018-10-11T01:58:02.724Z,6.17
2018-10-11T02:00:31.048Z,6.21
2018-10-11T02:02:59.811Z,6.32
2018-10-11T02:05:28.492Z,6.15
2018-10-11T02:07:57.734Z,6.06
2018-10-11T02:10:27.011Z,6.06
2018-10-11T02:12:55.601Z,6.13
2018-10-11T02:15:24.335Z,6.14
2018-10-11T02:17:52.506Z,6.08
2018-10-11T02:20:20.866Z,5.99
2018-10-11T02:22:49.006Z,5.95
2018-10-11T02:25:17.379Z,5.98
2018-10-11T02:27:45.635Z,6.01
2018-10-11T02:30:13.839Z,6.03
2018-10-11T02:32:42.632Z,6.01
2018-10-11T02:35:11.985Z,6.09
2018-10-11T02:37:40.404Z,6.15
2018-10-11T02:40:08.539Z,6.22
2018-10-11T02:42:36.709Z,6.46
2018-10-11T02:45:05.681Z,6.22
2018-10-11T02:47:33.818Z,6.20
2018-10-11T02:50:02.060Z,6.16
2018-10-11T02:52:30.352Z,6.10
2018-10-11T02:54:58.657Z,6.06
2018-10-11T02:57:37.813Z,6.19
2018-10-11T03:00:06.076Z,6.20
2018-10-11T03:02:36.121Z,6.19
2018-10-11T03:05:06.294Z,6.08
2018-10-11T03:07:34.689Z,5.75
2018-10-11T03:10:02.998Z,5.58
2018-10-11T03:12:31.132Z,5.46
2018-10-11T03:14:59.290Z,5.57
2018-10-11T03:17:27.645Z,5.34
2018-10-11T03:19:56.148Z,5.21
2018-10-11T03:22:24.343Z,5.15
2018-10-11T03:24:52.555Z,5.22
2018-10-11T03:27:21.554Z,5.21
2018-10-11T03:29:49.851Z,4.94
2018-10-11T03:32:17.984Z,4.89
2018-10-11T03:34:46.158Z,4.94
2018-10-11T03:37:14.410Z,4.94
2018-10-11T03:39:43.026Z,5.00
2018-10-11T03:42:11.586Z,4.93
2018-10-11T03:44:39.980Z,4.94
2018-10-11T03:47:08.455Z,4.80
2018-10-11T03:49:36.813Z,4.71
2018-10-11T03:52:05.022Z,4.66
2018-10-11T03:54:33.173Z,4.83
2018-10-11T03:57:01.327Z,4.83
2018-10-11T03:59:29.516Z,4.81
2018-10-11T04:01:57.782Z,4.78
2018-10-11T04:04:26.033Z,4.77
2018-10-11T04:06:54.329Z,4.76
2018-10-11T04:09:22.637Z,4.67
2018-10-11T04:11:50.868Z,4.64
2018-10-11T04:14:19.019Z,4.69
2018-10-11T04:16:47.314Z,4.73
2018-10-11T04:19:15.439Z,4.71
2018-10-11T04:21:43.600Z,4.85
2018-10-11T04:24:11.818Z,4.75
2018-10-11T04:26:40.104Z,4.66
2018-10-11T04:29:08.281Z,4.73
2018-10-11T04:31:36.383Z,5.01
2018-10-11T04:34:04.591Z,5.35
2018-10-11T04:36:32.680Z,5.01
2018-10-11T04:39:00.907Z,4.86
2018-10-11T04:41:29.058Z,4.96
2018-10-11T04:43:57.259Z,4.93
2018-10-11T04:46:25.599Z,4.75
2018-10-11T04:48:54.612Z,4.74
2018-10-11T04:51:22.910Z,4.72
2018-10-11T04:53:56.221Z,4.78
2018-10-11T04:56:26.177Z,4.87
2018-10-11T04:58:54.684Z,4.89
2018-10-11T05:01:22.859Z,4.91
2018-10-11T05:03:51.316Z,5.00
2018-10-11T05:06:19.552Z,5.04
2018-10-11T05:08:47.702Z,5.09
2018-10-11T05:11:15.874Z,5.26
2018-10-11T05:13:46.788Z,5.50
2018-10-11T05:16:16.126Z,5.73
2018-10-11T05:18:47.111Z,5.42
2018-10-11T05:21:15.942Z,5.38
2018-10-11T05:23:44.855Z,5.44
2018-10-11T05:26:13.701Z,5.56
2018-10-11T05:28:42.826Z,6.01
2018-10-11T05:31:12.065Z,6.76
2018-10-11T05:33:41.757Z,7.40
2018-10-11T05:36:11.357Z,7.30
2018-10-11T05:38:39.861Z,7.63
2018-10-11T05:41:09.462Z,7.47
2018-10-11T05:43:38.417Z,7.82
2018-10-11T05:46:15.667Z,8.24
2018-10-11T05:48:46.447Z,8.71
2018-10-11T05:51:15.423Z,9.13
2018-10-11T05:53:44.649Z,9.71
2018-10-11T05:56:13.912Z,9.60
2018-10-11T05:58:42.930Z,9.09
2018-10-11T06:01:12.539Z,8.76
2018-10-11T06:03:42.606Z,8.89
2018-10-11T06:06:11.702Z,9.24
2018-10-11T06:08:40.430Z,9.52
2018-10-11T06:11:09.261Z,9.86
2018-10-11T06:13:38.060Z,10.32
2018-10-11T06:16:07.343Z,10.49
2018-10-11T06:18:36.261Z,10.98
2018-10-11T06:21:04.944Z,10.99
2018-10-11T06:23:33.696Z,10.41
2018-10-11T06:26:02.907Z,9.82
2018-10-11T06:28:32.037Z,9.80
2018-10-11T06:31:01.007Z,10.29
2018-10-11T06:33:30.084Z,11.01
2018-10-11T06:35:59.627Z,11.23
2018-10-11T06:38:29.309Z,11.47
2018-10-11T06:40:59.420Z,11.12
2018-10-11T06:43:28.430Z,11.00
2018-10-11T06:45:57.482Z,11.31
2018-10-11T06:48:26.888Z,11.86
2018-10-11T06:50:56.507Z,12.53
2018-10-11T06:53:25.538Z,13.12
2018-10-11T06:55:54.914Z,13.36
2018-10-11T06:58:24.228Z,13.32
2018-10-11T07:00:53.357Z,13.92
2018-10-11T07:03:22.240Z,14.19
2018-10-11T07:05:52.688Z,14.22
2018-10-11T07:08:22.053Z,14.32
2018-10-11T07:10:52.333Z,14.40
2018-10-11T07:13:21.491Z,14.35
2018-10-11T07:15:50.257Z,14.50
2018-10-11T07:18:19.063Z,14.70
2018-10-11T07:20:47.872Z,14.52
2018-10-11T07:23:17.473Z,14.56
2018-10-11T07:25:46.526Z,14.56
2018-10-11T07:28:15.493Z,14.57
2018-10-11T07:30:44.410Z,14.66
2018-10-11T07:33:13.148Z,14.97
2018-10-11T07:35:42.574Z,14.82
2018-10-11T07:38:11.116Z,15.30
2018-10-11T07:40:40.089Z,15.38
2018-10-11T07:43:09.087Z,15.62
2018-10-11T07:45:37.451Z,15.71
2018-10-11T07:48:06.182Z,15.64
2018-10-11T07:50:34.937Z,16.06
2018-10-11T07:53:04.124Z,15.67
2018-10-11T07:55:33.124Z,15.95
2018-10-11T07:58:01.652Z,16.33
2018-10-11T08:00:30.696Z,16.38
2018-10-11T08:02:59.649Z,16.61
2018-10-11T08:05:28.307Z,16.58
2018-10-11T08:07:57.111Z,16.66
2018-10-11T08:10:26.064Z,16.69
2018-10-11T08:12:54.779Z,17.11
2018-10-11T08:15:23.445Z,17.21
2018-10-11T08:17:52.628Z,17.56
2018-10-11T08:20:21.520Z,17.49
2018-10-11T08:22:50.770Z,17.58
2018-10-11T08:25:19.917Z,17.07
2018-10-11T08:27:49.126Z,17.21
2018-10-11T08:30:18.770Z,17.79
2018-10-11T08:32:47.801Z,17.72
2018-10-11T08:35:16.840Z,17.74
2018-10-11T08:37:45.831Z,17.69
2018-10-11T08:40:14.447Z,17.50
2018-10-11T08:42:43.416Z,17.73
2018-10-11T08:45:12.527Z,17.54
2018-10-11T09:01:43.390Z,18.76
2018-10-11T09:04:11.997Z,19.00
2018-10-11T09:06:40.218Z,19.22
2018-10-11T09:09:09.397Z,18.69
2018-10-11T09:11:37.473Z,18.56
2018-10-11T09:14:05.960Z,18.84
2018-10-11T09:16:34.619Z,19.03
2018-10-11T09:19:03.205Z,19.28
2018-10-11T09:21:31.395Z,19.62
2018-10-11T09:23:59.698Z,19.34
2018-10-11T09:26:28.165Z,18.76
2018-10-11T09:28:56.910Z,18.62
2018-10-11T09:31:25.732Z,18.87
2018-10-11T09:33:54.656Z,19.10
2018-10-11T09:36:24.004Z,19.08
2018-10-11T09:38:53.503Z,19.07
2018-10-11T09:41:21.965Z,18.87
2018-10-11T09:43:50.422Z,19.27
2018-10-11T09:46:18.962Z,19.18
2018-10-11T09:48:48.165Z,19.74
2018-10-11T09:51:16.936Z,20.24
2018-10-11T09:53:45.791Z,20.12
2018-10-11T09:56:14.372Z,20.34
2018-10-11T09:58:43.399Z,20.41
2018-10-11T10:01:17.436Z,20.18
2018-10-11T10:03:46.262Z,20.56
2018-10-11T10:06:14.876Z,20.48
2018-10-11T10:08:43.626Z,20.28
2018-10-11T10:11:12.156Z,20.01
2018-10-11T10:13:40.909Z,20.17
2018-10-11T10:16:09.366Z,20.80
2018-10-11T10:18:38.330Z,21.16
2018-10-11T10:21:07.395Z,21.03
2018-10-11T10:23:35.920Z,21.48
2018-10-11T10:26:04.686Z,21.07
2018-10-11T10:28:33.533Z,20.75
2018-10-11T10:31:01.966Z,21.01
2018-10-11T10:33:30.528Z,21.22
2018-10-11T10:35:58.955Z,21.20
2018-10-11T10:38:27.372Z,20.53
2018-10-11T10:40:55.846Z,20.19
2018-10-11T10:43:24.544Z,21.00
2018-10-11T10:45:52.922Z,21.51
2018-10-11T10:48:21.752Z,21.28
2018-10-11T10:50:50.571Z,20.79
2018-10-11T10:53:19.193Z,20.61
2018-10-11T10:55:47.595Z,20.46
2018-10-11T10:58:16.109Z,20.87
2018-10-11T11:00:45.165Z,21.26
2018-10-11T11:03:13.629Z,20.62
2018-10-11T11:05:42.149Z,20.68
2018-10-11T11:08:10.633Z,20.64
2018-10-11T11:10:39.125Z,20.94
2018-10-11T11:13:07.656Z,20.82
2018-10-11T11:15:36.074Z,20.64
2018-10-11T11:18:04.813Z,20.65
2018-10-11T11:20:33.438Z,20.37
2018-10-11T11:23:02.100Z,20.28
2018-10-11T11:25:30.650Z,20.35
2018-10-11T11:27:58.999Z,20.03
2018-10-11T11:30:27.811Z,20.14
2018-10-11T11:32:56.391Z,19.74
2018-10-11T11:35:25.137Z,19.65
2018-10-11T11:37:53.714Z,19.87
2018-10-11T11:40:22.000Z,20.08
2018-10-11T11:42:50.334Z,20.22
2018-10-11T11:45:18.967Z,20.31
2018-10-11T11:47:47.378Z,20.66
2018-10-11T11:50:15.966Z,20.38
2018-10-11T11:52:44.281Z,20.80
2018-10-11T11:55:13.062Z,20.70
2018-10-11T11:57:41.571Z,20.42
2018-10-11T12:00:10.232Z,20.14
2018-10-11T12:02:38.663Z,20.02
2018-10-11T12:05:07.469Z,20.01
2018-10-11T12:07:36.129Z,19.70
2018-10-11T12:10:04.673Z,19.55
2018-10-11T12:13:07.942Z,19.33
2018-10-11T12:15:37.870Z,19.57
2018-10-11T12:18:07.541Z,19.81
2018-10-11T12:20:37.478Z,19.74
2018-10-11T12:23:07.461Z,19.74
2018-10-11T12:25:36.718Z,19.74
2018-10-11T12:28:05.605Z,19.63
2018-10-11T12:30:34.296Z,19.82
2018-10-11T12:33:03.301Z,19.78
2018-10-11T12:35:32.151Z,19.85
2018-10-11T12:38:01.118Z,19.74
2018-10-11T12:40:29.996Z,19.67
2018-10-11T12:42:58.994Z,19.55
2018-10-11T12:45:27.584Z,19.72
2018-10-11T12:47:56.102Z,19.80
2018-10-11T12:50:24.611Z,19.72
2018-10-11T12:52:53.246Z,19.81
2018-10-11T12:55:21.871Z,19.98
2018-10-11T12:57:50.424Z,20.24
2018-10-11T13:00:19.321Z,20.16
2018-10-11T13:02:47.932Z,19.85
2018-10-11T13:05:16.492Z,19.48
2018-10-11T13:07:45.893Z,19.61
2018-10-11T13:10:14.474Z,19.72
2018-10-11T13:12:43.075Z,19.37
2018-10-11T13:15:11.450Z,19.13
2018-10-11T13:17:43.388Z,18.95
2018-10-11T13:20:08.842Z,19.06
2018-10-11T13:22:36.869Z,18.97
2018-10-11T13:25:05.265Z,18.91
2018-10-11T13:27:33.504Z,18.97
2018-10-11T13:30:01.832Z,18.96
2018-10-11T13:32:29.980Z,18.96
2018-10-11T13:34:58.245Z,18.81
2018-10-11T13:37:26.348Z,18.88
2018-10-11T13:39:56.991Z,18.72
2018-10-11T13:42:22.832Z,18.50
2018-10-11T13:44:50.879Z,18.56
2018-10-11T13:47:19.052Z,18.52
2018-10-11T13:49:47.323Z,18.58
2018-10-11T13:52:18.227Z,18.46
2018-10-11T13:54:43.568Z,18.49
2018-10-11T13:57:11.955Z,18.52
2018-10-11T13:59:40.368Z,18.55
2018-10-11T14:02:08.682Z,18.59
2018-10-11T14:04:36.964Z,18.42
2018-10-11T14:07:05.236Z,18.26
2018-10-11T14:09:33.343Z,18.11
2018-10-11T14:12:01.625Z,18.07
2018-10-11T14:14:30.171Z,18.12
2018-10-11T14:16:58.448Z,18.17
2018-10-11T14:19:27.017Z,18.18
2018-10-11T14:21:55.295Z,18.16
2018-10-11T14:24:23.393Z,18.12
2018-10-11T14:26:51.554Z,18.10
2018-10-11T14:29:19.749Z,18.01
2018-10-11T14:31:47.948Z,18.02
2018-10-11T14:34:16.229Z,18.01
2018-10-11T14:36:44.672Z,18.05
2018-10-11T14:39:12.885Z,18.04
2018-10-11T14:41:41.164Z,18.02
2018-10-11T14:44:09.458Z,17.97
2018-10-11T14:46:37.783Z,17.95
2018-10-11T14:49:06.573Z,17.88
2018-10-11T14:51:35.151Z,17.76
2018-10-11T14:54:03.387Z,17.80
2018-10-11T14:56:31.609Z,17.85
2018-10-11T14:58:59.816Z,17.74
2018-10-11T15:01:28.636Z,17.66
2018-10-11T15:03:57.462Z,17.57
2018-10-11T15:06:25.991Z,17.53
2018-10-11T15:08:54.474Z,17.36
2018-10-11T15:11:23.081Z,17.36
2018-10-11T15:13:51.295Z,17.23
2018-10-11T15:16:19.582Z,17.18
2018-10-11T15:18:47.967Z,17.18
2018-10-11T15:21:16.259Z,17.09
2018-10-11T15:23:44.513Z,16.83
2018-10-11T15:26:12.787Z,16.95
2018-10-11T15:28:40.979Z,16.91
2018-10-11T15:31:09.321Z,16.87
2018-10-11T15:33:37.786Z,16.71
2018-10-11T15:36:06.035Z,16.46
2018-10-11T15:38:34.436Z,16.62
2018-10-11T15:41:02.703Z,16.33
2018-10-11T15:43:31.127Z,16.38
2018-10-11T15:45:59.276Z,16.31
2018-10-11T15:48:27.376Z,16.07
2018-10-11T15:50:55.787Z,16.14
2018-10-11T15:53:23.927Z,16.10
2018-10-11T15:55:52.278Z,16.04
2018-10-11T15:58:20.484Z,15.90
2018-10-11T16:00:48.795Z,15.99
2018-10-11T16:03:16.875Z,15.98
2018-10-11T16:05:45.187Z,15.72
2018-10-11T16:08:13.349Z,15.47
2018-10-11T16:10:41.630Z,15.19
2018-10-11T16:13:09.783Z,14.77
2018-10-11T16:15:37.894Z,14.59
2018-10-11T16:18:06.102Z,14.58
2018-10-11T16:20:34.355Z,14.47
2018-10-11T16:23:02.749Z,14.04
2018-10-11T16:25:31.228Z,13.93
2018-10-11T16:27:59.972Z,13.82
2018-10-11T16:30:32.187Z,14.20
2018-10-11T16:33:01.065Z,14.60
2018-10-11T16:35:29.532Z,14.44
2018-10-11T16:37:58.011Z,13.84
2018-10-11T16:40:26.447Z,13.69
2018-10-11T16:42:54.812Z,13.90
2018-10-11T16:45:23.006Z,13.88
2018-10-11T16:47:51.254Z,13.96
2018-10-11T16:50:19.664Z,13.83
2018-10-11T16:52:48.067Z,14.10
2018-10-11T16:55:16.301Z,13.94
2018-10-11T16:57:44.678Z,14.03
2018-10-11T17:00:12.990Z,14.23
2018-10-11T17:02:41.332Z,13.90
2018-10-11T17:05:12.596Z,13.67
2018-10-11T17:07:40.904Z,13.65
2018-10-11T17:10:09.106Z,13.53
2018-10-11T17:12:37.675Z,13.36
2018-10-11T17:15:07.263Z,13.33
2018-10-11T17:17:35.562Z,13.42
2018-10-11T17:20:03.954Z,13.76
2018-10-11T17:22:32.355Z,13.67
2018-10-11T17:25:00.660Z,13.28
2018-10-11T17:27:28.930Z,13.18
2018-10-11T17:29:57.391Z,13.48
2018-10-11T17:32:26.033Z,13.64
2018-10-11T17:34:54.569Z,13.38
2018-10-11T17:37:22.823Z,13.22
2018-10-11T17:39:50.993Z,13.26
2018-10-11T17:42:19.305Z,13.08
2018-10-11T17:44:47.682Z,12.70
2018-10-11T17:47:16.114Z,12.72
2018-10-11T17:49:44.738Z,12.82
2018-10-11T17:52:12.996Z,12.67
2018-10-11T17:54:46.923Z,12.40
2018-10-11T17:57:15.509Z,12.27
2018-10-11T17:59:44.283Z,12.08
2018-10-11T18:02:12.935Z,12.02
2018-10-11T18:04:41.308Z,11.90
2018-10-11T18:07:09.730Z,11.86
2018-10-11T18:09:38.153Z,11.86
2018-10-11T18:12:06.246Z,11.98
2018-10-11T18:14:34.509Z,12.00
2018-10-11T18:17:03.017Z,12.03
2018-10-11T18:19:31.216Z,12.08
2018-10-11T18:22:00.594Z,12.16
2018-10-11T18:24:28.847Z,12.18
2018-10-11T18:26:57.273Z,12.18
2018-10-11T18:29:25.616Z,12.20
2018-10-11T18:31:53.867Z,12.22
2018-10-11T18:34:22.085Z,12.20
2018-10-11T18:36:50.273Z,12.27
2018-10-11T18:39:18.757Z,12.34
2018-10-11T18:41:47.129Z,12.37
2018-10-11T18:44:15.481Z,12.41
2018-10-11T18:46:43.860Z,12.43
2018-10-11T18:49:12.203Z,12.61
2018-10-11T18:51:40.735Z,12.51
2018-10-11T18:54:09.182Z,12.45
2018-10-11T18:56:37.627Z,12.39
2018-10-11T18:59:05.964Z,12.39
2018-10-11T19:01:34.531Z,12.41
2018-10-11T19:04:03.241Z,12.38
2018-10-11T19:06:31.603Z,12.34
2018-10-11T19:09:00.109Z,12.34
2018-10-11T19:11:28.299Z,12.32
2018-10-11T19:13:56.650Z,12.32
2018-10-11T19:16:24.857Z,12.36
2018-10-11T19:18:53.247Z,12.34
2018-10-11T19:21:21.499Z,12.36
2018-10-11T19:23:49.639Z,12.42
2018-10-11T19:26:19.006Z,12.35
2018-10-11T19:28:47.331Z,12.40
2018-10-11T19:31:15.744Z,12.44
2018-10-11T19:33:43.952Z,12.38
2018-10-11T19:36:12.201Z,12.37
2018-10-11T19:38:40.462Z,12.39
2018-10-11T19:41:08.933Z,12.41
2018-10-11T19:43:37.320Z,12.46
2018-10-11T19:46:05.482Z,12.46
2018-10-11T19:48:33.681Z,12.46
2018-10-11T19:51:01.877Z,12.49
2018-10-11T19:53:30.100Z,12.45
2018-10-11T19:55:58.523Z,12.47
2018-10-11T19:58:26.785Z,12.44
2018-10-11T20:00:55.096Z,12.35
2018-10-11T20:03:23.327Z,12.33
2018-10-11T20:05:51.465Z,12.29
2018-10-11T20:08:19.701Z,12.36
2018-10-11T20:10:47.863Z,12.36
2018-10-11T20:13:16.310Z,12.28
2018-10-11T20:15:44.625Z,12.19
2018-10-11T20:18:13.094Z,12.14
2018-10-11T20:20:41.977Z,12.15
2018-10-11T20:23:10.173Z,12.23
2018-10-11T20:25:38.294Z,12.29
2018-10-11T20:28:06.873Z,12.21
2018-10-11T20:30:35.052Z,12.27
2018-10-11T20:33:03.312Z,12.32
2018-10-11T20:35:31.481Z,12.17
2018-10-11T20:37:59.640Z,12.21
2018-10-11T20:40:27.973Z,12.27
2018-10-11T20:42:56.144Z,12.25
2018-10-11T20:45:24.248Z,12.14
2018-10-11T20:47:52.577Z,12.09
2018-10-11T20:50:20.768Z,12.05
2018-10-11T20:52:48.962Z,12.14
2018-10-11T20:55:17.275Z,12.20
2018-10-11T20:57:45.417Z,12.08
2018-10-11T21:00:13.666Z,11.98
2018-10-11T21:02:41.807Z,11.98
2018-10-11T21:05:09.981Z,12.00
2018-10-11T21:07:38.132Z,11.97
2018-10-11T21:10:06.864Z,12.15
2018-10-11T21:12:35.444Z,12.14
2018-10-11T21:15:03.687Z,12.10
2018-10-11T21:17:31.961Z,12.02
2018-10-11T21:20:00.339Z,12.01
2018-10-11T21:22:28.624Z,11.96
2018-10-11T21:24:56.964Z,11.93
2018-10-11T21:27:25.261Z,11.93
2018-10-11T21:29:53.651Z,11.84
2018-10-11T21:32:22.160Z,11.83
2018-10-11T21:34:50.330Z,11.79
2018-10-11T21:37:18.580Z,11.76
2018-10-11T21:39:46.610Z,11.75
2018-10-11T21:42:14.728Z,11.72
2018-10-11T21:44:42.941Z,11.68
2018-10-11T21:47:11.460Z,11.68
2018-10-11T21:49:39.735Z,11.71
2018-10-11T21:52:09.185Z,11.82
2018-10-11T21:54:37.286Z,11.75
2018-10-11T21:57:05.599Z,11.65
2018-10-11T21:59:33.771Z,11.62
2018-10-11T22:02:01.974Z,11.54
2018-10-11T22:04:30.304Z,11.50
2018-10-11T22:06:58.457Z,11.48
2018-10-11T22:09:26.690Z,11.48
2018-10-11T22:11:54.916Z,11.46
2018-10-11T22:14:23.422Z,11.46
2018-10-11T22:16:51.650Z,11.45
2018-10-11T22:19:19.895Z,11.37
2018-10-11T22:21:48.231Z,11.33
2018-10-11T22:24:16.594Z,11.33
2018-10-11T22:26:44.968Z,11.33
2018-10-11T22:29:13.295Z,11.32
2018-10-11T22:31:41.668Z,11.32
2018-10-11T22:34:09.853Z,11.28
2018-10-11T22:36:38.108Z,11.29
2018-10-11T22:39:08.725Z,11.23
2018-10-11T22:41:37.730Z,11.21
2018-10-11T22:44:06.014Z,11.27
2018-10-11T22:46:34.437Z,11.26
2018-10-11T22:49:02.748Z,11.16
2018-10-11T22:51:31.156Z,11.08
2018-10-11T22:53:59.497Z,11.06
2018-10-11T22:56:27.755Z,11.08
2018-10-11T22:58:55.919Z,10.98
2018-10-11T23:01:24.455Z,10.98
2018-10-11T23:03:52.679Z,10.87
2018-10-11T23:06:21.160Z,10.86
2018-10-11T23:08:49.344Z,10.77
2018-10-11T23:11:17.584Z,10.74
2018-10-11T23:13:45.770Z,10.68
2018-10-11T23:16:13.873Z,10.62
2018-10-11T23:18:42.334Z,10.52
2018-10-11T23:21:11.160Z,10.52
2018-10-11T23:23:39.257Z,10.43
2018-10-11T23:26:07.544Z,10.37
2018-10-11T23:28:35.759Z,10.36
2018-10-11T23:31:03.899Z,10.30
2018-10-11T23:33:31.968Z,10.38
2018-10-11T23:36:00.162Z,10.41
2018-10-11T23:38:28.256Z,10.36
2018-10-11T23:40:56.443Z,10.23
2018-10-11T23:43:24.703Z,10.26
2018-10-11T23:45:52.741Z,10.18
2018-10-11T23:48:20.797Z,10.11
2018-10-11T23:50:48.943Z,10.23
2018-10-11T23:53:16.951Z,10.25
2018-10-11T23:55:44.984Z,10.21
2018-10-11T23:58:12.984Z,10.21
